Time;durP1;ratioP1;P1;durP2;ratioP2;P2;SDS_P1;SDS_P2;PMS_P1;PMS_P2;Temp;Humidity;BMP_temperature;BMP_pressure;BME280_temperature;BME280_humidity;BME280_pressure;Samples;Min_cycle;Max_cycle;Signal;HPM_P1;HPM_P2
2023/12/09 00:00:17;;;;;;;;;;;;;;;;;;5092881;28;19931;-53
2023/12/09 00:02:43;;;;;;;;;;;;;;;;;;5092749;28;19928;-52
2023/12/09 00:05:09;;;;;;;;;;;;;;;;;;5092806;28;19924;-52
2023/12/09 00:07:36;;;;;;;;;;;;;;;;;;5092673;28;20368;-52
2023/12/09 00:10:02;;;;;;;;;;;;;;;;;;5092759;28;20376;-52
2023/12/09 00:12:28;;;;;;;;;;;;;;;;;;5092429;28;20303;-52
2023/12/09 00:14:55;;;;;;;;;;;;;;;;;;5092640;28;20360;-51
2023/12/09 00:17:21;;;;;;;;;;;;;;;;;;5093056;28;20473;-52
2023/12/09 00:19:47;;;;;;;;;;;;;;;;;;5092695;28;19931;-52
2023/12/09 00:22:14;;;;;;;;;;;;;;;;;;5095652;28;19924;-52
2023/12/09 00:24:40;;;;;;;;;;;;;;;;;;5096655;28;19928;-52
2023/12/09 00:27:06;;;;;;;;;;;;;;;;;;5096922;28;20326;-52
2023/12/09 00:29:32;;;;;;;;;;;;;;;;;;5096920;28;19932;-52
2023/12/09 00:31:58;;;;;;;;;;;;;;;;;;5096132;28;19928;-52
2023/12/09 00:34:24;;;;;;;;;;;;;;;;;;5096702;28;20344;-52
2023/12/09 00:36:51;;;;;;;;;;;;;;;;;;5096769;28;20340;-52
2023/12/09 00:39:17;;;;;;;;;;;;;;;;;;5096282;28;19946;-52
2023/12/09 00:41:43;;;;;;;;;;;;;;;;;;5107923;28;19931;-52
2023/12/09 00:44:09;;;;;;;;;;;;;;;;;;5116672;28;19932;-51
2023/12/09 00:46:35;;;;;;;;;;;;;;;;;;5116747;28;19974;-50
2023/12/09 00:49:01;;;;;;;;;;;;;;;;;;5117132;27;19928;-52
2023/12/09 00:51:28;;;;;;;;;;;;;;;;;;5116713;28;19969;-52
2023/12/09 00:53:54;;;;;;;;;;;;;;;;;;5116484;28;19924;-52
2023/12/09 00:56:20;;;;;;;;;;;;;;;;;;5116399;28;19924;-52
2023/12/09 00:58:58;;;;;;;;;;;;;;;;;;5116527;28;19924;-52
2023/12/09 01:01:24;;;;;;;;;;;;;;;;;;5116702;28;19950;-51
2023/12/09 01:03:50;;;;;;;;;;;;;;;;;;5116440;28;19927;-52
2023/12/09 01:06:17;;;;;;;;;;;;;;;;;;5116618;28;19928;-52
2023/12/09 01:08:43;;;;;;;;;;;;;;;;;;5116455;27;19977;-52
2023/12/09 01:11:09;;;;;;;;;;;;;;;;;;5116144;28;20424;-51
2023/12/09 01:13:35;;;;;;;;;;;;;;;;;;5116602;28;19974;-52
2023/12/09 01:16:02;;;;;;;;;;;;;;;;;;5116303;28;19963;-52
2023/12/09 01:18:29;;;;;;;;;;;;;;;;;;5116279;28;19971;-52
2023/12/09 01:20:55;;;;;;;;;;;;;;;;;;5116224;28;20050;-52
2023/12/09 01:23:21;;;;;;;;;;;;;;;;;;5116057;28;20275;-51
2023/12/09 01:25:47;;;;;;;;;;;;;;;;;;5116297;28;19967;-52
2023/12/09 01:28:13;;;;;;;;;;;;;;;;;;5116065;28;19924;-52
2023/12/09 01:30:39;;;;;;;;;;;;;;;;;;5116328;28;20068;-52
2023/12/09 01:33:06;;;;;;;;;;;;;;;;;;5115903;28;19928;-52
2023/12/09 01:35:32;;;;;;;;;;;;;;;;;;5116066;28;20010;-51
2023/12/09 01:37:58;;;;;;;;;;;;;;;;;;5116114;28;19973;-52
2023/12/09 01:40:24;;;;;;;;;;;;;;;;;;5115592;28;20420;-52
2023/12/09 01:42:50;;;;;;;;;;;;;;;;;;5115519;28;19939;-52
2023/12/09 01:45:17;;;;;;;;;;;;;;;;;;5115683;28;19923;-52
2023/12/09 01:47:43;;;;;;;;;;;;;;;;;;5115963;28;19924;-52
2023/12/09 01:50:09;;;;;;;;;;;;;;;;;;5114937;28;19973;-52
2023/12/09 01:52:35;;;;;;;;;;;;;;;;;;5115197;28;19931;-52
2023/12/09 01:55:02;;;;;;;;;;;;;;;;;;5115330;28;19939;-50
2023/12/09 01:57:28;;;;;;;;;;;;;;;;;;5115264;28;19923;-52
2023/12/09 01:59:54;;;;;;;;;;;;;;;;;;5114960;28;20011;-52
2023/12/09 02:02:21;;;;;;;;;;;;;;;;;;5115132;28;20371;-51
2023/12/09 02:04:47;;;;;;;;;;;;;;;;;;5115520;28;19931;-52
2023/12/09 02:07:13;;;;;;;;;;;;;;;;;;5115559;28;19935;-51
2023/12/09 02:09:39;;;;;;;;;;;;;;;;;;5114869;28;19923;-52
2023/12/09 02:12:05;;;;;;;;;;;;;;;;;;5114701;28;19923;-52
2023/12/09 02:14:32;;;;;;;;;;;;;;;;;;5115211;28;19930;-52
2023/12/09 02:16:58;;;;;;;;;;;;;;;;;;5115302;28;20313;-52
2023/12/09 02:19:24;;;;;;;;;;;;;;;;;;5114056;28;20288;-51
2023/12/09 02:21:50;;;;;;;;;;;;;;;;;;5115131;28;19973;-52
2023/12/09 02:24:16;;;;;;;;;;;;;;;;;;5114861;28;19984;-52
2023/12/09 02:26:42;;;;;;;;;;;;;;;;;;5115069;28;19930;-52
2023/12/09 02:29:08;;;;;;;;;;;;;;;;;;5114819;27;20044;-52
2023/12/09 02:31:35;;;;;;;;;;;;;;;;;;5114596;28;19927;-52
2023/12/09 02:34:01;;;;;;;;;;;;;;;;;;5114840;28;20392;-52
2023/12/09 02:36:27;;;;;;;;;;;;;;;;;;5114563;28;19924;-52
2023/12/09 02:38:53;;;;;;;;;;;;;;;;;;5114125;28;19924;-52
2023/12/09 02:41:20;;;;;;;;;;;;;;;;;;5114384;28;19924;-52
2023/12/09 02:43:46;;;;;;;;;;;;;;;;;;5113945;28;19932;-51
2023/12/09 02:46:12;;;;;;;;;;;;;;;;;;5113933;28;20272;-52
2023/12/09 02:48:39;;;;;;;;;;;;;;;;;;5114479;28;19923;-52
2023/12/09 02:51:05;;;;;;;;;;;;;;;;;;5114186;28;19924;-52
2023/12/09 02:53:31;;;;;;;;;;;;;;;;;;5114396;28;19928;-49
2023/12/09 02:55:57;;;;;;;;;;;;;;;;;;5114385;28;19927;-50
2023/12/09 02:58:23;;;;;;;;;;;;;;;;;;5114303;28;19924;-49
2023/12/09 03:00:49;;;;;;;;;;;;;;;;;;5113899;28;19924;-50
2023/12/09 03:03:16;;;;;;;;;;;;;;;;;;5114137;28;19923;-50
2023/12/09 03:05:42;;;;;;;;;;;;;;;;;;5114448;28;19924;-52
2023/12/09 03:08:08;;;;;;;;;;;;;;;;;;5114133;28;20306;-52
2023/12/09 03:10:34;;;;;;;;;;;;;;;;;;5113783;28;19924;-50
2023/12/09 03:13:00;;;;;;;;;;;;;;;;;;5114274;28;19924;-52
2023/12/09 03:15:26;;;;;;;;;;;;;;;;;;5113971;28;19928;-52
2023/12/09 03:17:53;;;;;;;;;;;;;;;;;;5113901;28;19967;-52
2023/12/09 03:20:20;;;;;;;;;;;;;;;;;;5113235;27;20264;-51
2023/12/09 03:22:47;;;;;;;;;;;;;;;;;;5113844;28;20321;-51
2023/12/09 03:25:13;;;;;;;;;;;;;;;;;;5113684;28;19927;-52
2023/12/09 03:27:39;;;;;;;;;;;;;;;;;;5113890;28;19928;-52
2023/12/09 03:30:05;;;;;;;;;;;;;;;;;;5113516;28;19923;-52
2023/12/09 03:32:31;;;;;;;;;;;;;;;;;;5113557;28;19932;-52
2023/12/09 03:34:57;;;;;;;;;;;;;;;;;;5113854;28;19931;-52
2023/12/09 03:37:24;;;;;;;;;;;;;;;;;;5113466;28;19959;-52
2023/12/09 03:39:50;;;;;;;;;;;;;;;;;;5112834;28;19935;-51
2023/12/09 03:42:16;;;;;;;;;;;;;;;;;;5113674;28;19924;-51
2023/12/09 03:44:42;;;;;;;;;;;;;;;;;;5113231;28;19928;-51
2023/12/09 03:47:08;;;;;;;;;;;;;;;;;;5113049;28;19935;-51
2023/12/09 03:49:43;;;;;;;;;;;;;;;;;;5113278;28;19931;-52
2023/12/09 03:52:09;;;;;;;;;;;;;;;;;;5113123;28;19924;-52
2023/12/09 03:54:35;;;;;;;;;;;;;;;;;;5113472;28;19946;-52
2023/12/09 03:57:02;;;;;;;;;;;;;;;;;;5112721;28;20368;-52
2023/12/09 03:59:28;;;;;;;;;;;;;;;;;;5113352;28;19924;-52
2023/12/09 04:01:54;;;;;;;;;;;;;;;;;;5112989;28;19924;-51
2023/12/09 04:04:23;;;;;;;;;;;;;;;;;;5107007;28;19934;-52
2023/12/09 04:06:51;;;;;;;;;;;;;;;;;;5113525;28;19927;-52
2023/12/09 04:09:18;;;;;;;;;;;;;;;;;;5113188;28;19924;-52
2023/12/09 04:11:44;;;;;;;;;;;;;;;;;;5112836;28;20351;-52
2023/12/09 04:14:11;;;;;;;;;;;;;;;;;;5112891;28;19935;-51
2023/12/09 04:16:37;;;;;;;;;;;;;;;;;;5113322;28;19927;-52
2023/12/09 04:19:03;;;;;;;;;;;;;;;;;;5113262;28;19993;-50
2023/12/09 04:21:31;;;;;;;;;;;;;;;;;;5113011;28;19923;-52
2023/12/09 04:23:57;;;;;;;;;;;;;;;;;;5112724;28;19946;-52
2023/12/09 04:26:23;;;;;;;;;;;;;;;;;;5113268;28;19928;-51
2023/12/09 04:28:50;;;;;;;;;;;;;;;;;;5113128;28;19955;-52
2023/12/09 04:31:16;;;;;;;;;;;;;;;;;;5112710;28;19923;-51
2023/12/09 04:33:44;;;;;;;;;;;;;;;;;;5113122;28;19984;-52
2023/12/09 04:36:10;;;;;;;;;;;;;;;;;;5113128;28;19924;-51
2023/12/09 04:38:36;;;;;;;;;;;;;;;;;;5112992;28;20309;-52
2023/12/09 04:41:03;;;;;;;;;;;;;;;;;;5112877;28;19928;-52
2023/12/09 04:43:29;;;;;;;;;;;;;;;;;;5112653;28;19967;-52
2023/12/09 04:45:55;;;;;;;;;;;;;;;;;;5112452;28;19928;-52
2023/12/09 04:48:21;;;;;;;;;;;;;;;;;;5112668;28;20448;-52
2023/12/09 04:50:47;;;;;;;;;;;;;;;;;;5112878;28;19924;-52
2023/12/09 04:53:13;;;;;;;;;;;;;;;;;;5112903;28;19923;-51
2023/12/09 04:55:40;;;;;;;;;;;;;;;;;;5112832;28;19924;-52
2023/12/09 04:58:06;;;;;;;;;;;;;;;;;;5112909;28;19977;-52
2023/12/09 05:00:32;;;;;;;;;;;;;;;;;;5112761;28;19934;-52
2023/12/09 05:02:58;;;;;;;;;;;;;;;;;;5112443;28;19975;-52
2023/12/09 05:05:25;;;;;;;;;;;;;;;;;;5112880;28;19931;-52
2023/12/09 05:07:51;;;;;;;;;;;;;;;;;;5115412;28;19924;-51
2023/12/09 05:10:18;;;;;;;;;;;;;;;;;;5116357;28;19977;-52
2023/12/09 05:12:44;;;;;;;;;;;;;;;;;;5116171;28;19985;-52
2023/12/09 05:15:10;;;;;;;;;;;;;;;;;;5116180;28;19924;-52
2023/12/09 05:17:37;;;;;;;;;;;;;;;;;;5116442;28;20006;-51
2023/12/09 05:20:04;;;;;;;;;;;;;;;;;;5115950;28;20373;-52
2023/12/09 05:22:30;;;;;;;;;;;;;;;;;;5115698;28;19949;-51
2023/12/09 05:24:56;;;;;;;;;;;;;;;;;;5115572;28;19924;-52
2023/12/09 05:27:23;;;;;;;;;;;;;;;;;;5115852;28;20375;-50
2023/12/09 05:29:49;;;;;;;;;;;;;;;;;;5115991;28;19924;-51
2023/12/09 05:32:16;;;;;;;;;;;;;;;;;;5115977;28;19924;-52
2023/12/09 05:34:42;;;;;;;;;;;;;;;;;;5116195;28;19923;-52
2023/12/09 05:37:08;;;;;;;;;;;;;;;;;;5116289;28;20323;-52
2023/12/09 05:39:35;;;;;;;;;;;;;;;;;;5115816;28;20252;-51
2023/12/09 05:42:04;;;;;;;;;;;;;;;;;;5114136;28;22311;-52
2023/12/09 05:44:30;;;;;;;;;;;;;;;;;;5115270;28;20459;-52
2023/12/09 05:46:56;;;;;;;;;;;;;;;;;;5115750;28;20331;-52
2023/12/09 05:49:23;;;;;;;;;;;;;;;;;;5115370;28;19986;-52
2023/12/09 05:51:49;;;;;;;;;;;;;;;;;;5115164;28;20348;-52
2023/12/09 05:54:15;;;;;;;;;;;;;;;;;;5115658;28;20309;-52
2023/12/09 05:56:41;;;;;;;;;;;;;;;;;;5115810;28;19932;-52
2023/12/09 05:59:07;;;;;;;;;;;;;;;;;;5115819;28;19945;-52
2023/12/09 06:01:33;;;;;;;;;;;;;;;;;;5114673;28;20387;-52
2023/12/09 06:04:00;;;;;;;;;;;;;;;;;;5115163;28;19930;-52
2023/12/09 06:06:26;;;;;;;;;;;;;;;;;;5115672;27;19977;-52
2023/12/09 06:08:52;;;;;;;;;;;;;;;;;;5115144;28;19989;-51
2023/12/09 06:11:18;;;;;;;;;;;;;;;;;;5115371;28;19924;-52
2023/12/09 06:13:44;;;;;;;;;;;;;;;;;;5114851;28;19967;-52
2023/12/09 06:16:10;;;;;;;;;;;;;;;;;;5115169;28;19923;-52
2023/12/09 06:18:37;;;;;;;;;;;;;;;;;;5114249;28;19981;-52
2023/12/09 06:21:03;;;;;;;;;;;;;;;;;;5114936;28;19932;-52
2023/12/09 06:23:29;;;;;;;;;;;;;;;;;;5115129;28;19923;-52
2023/12/09 06:25:55;;;;;;;;;;;;;;;;;;5115088;28;20427;-52
2023/12/09 06:28:21;;;;;;;;;;;;;;;;;;5115150;28;20425;-52
2023/12/09 06:30:47;;;;;;;;;;;;;;;;;;5115193;28;19924;-52
2023/12/09 06:33:14;;;;;;;;;;;;;;;;;;5115018;28;19975;-52
2023/12/09 06:35:40;;;;;;;;;;;;;;;;;;5114979;28;20370;-52
2023/12/09 06:38:06;;;;;;;;;;;;;;;;;;5114932;28;19927;-51
2023/12/09 06:40:32;;;;;;;;;;;;;;;;;;5114387;27;19935;-52
2023/12/09 06:42:59;;;;;;;;;;;;;;;;;;5114381;28;20329;-52
2023/12/09 06:45:25;;;;;;;;;;;;;;;;;;5114234;28;19935;-52
2023/12/09 06:47:53;;;;;;;;;;;;;;;;;;5114755;28;19923;-51
2023/12/09 06:50:20;;;;;;;;;;;;;;;;;;5114164;28;19981;-52
2023/12/09 06:52:46;;;;;;;;;;;;;;;;;;5113656;28;19977;-52
2023/12/09 06:55:12;;;;;;;;;;;;;;;;;;5114145;28;19973;-52
2023/12/09 06:57:39;;;;;;;;;;;;;;;;;;5113861;28;19946;-52
2023/12/09 07:00:07;;;;;;;;;;;;;;;;;;5114036;28;19924;-52
2023/12/09 07:02:34;;;;;;;;;;;;;;;;;;5113900;28;19974;-52
2023/12/09 07:05:09;;;;;;;;;;;;;;;;;;5113716;27;19947;-52
2023/12/09 07:07:36;;;;;;;;;;;;;;;;;;5114283;28;19970;-52
2023/12/09 07:10:05;;;;;;;;;;;;;;;;;;5113980;28;19924;-52
2023/12/09 07:12:31;;;;;;;;;;;;;;;;;;5114197;28;19972;-52
2023/12/09 07:14:59;;;;;;;;;;;;;;;;;;5113773;28;19997;-52
2023/12/09 07:17:25;;;;;;;;;;;;;;;;;;5113850;28;19924;-51
2023/12/09 07:19:52;;;;;;;;;;;;;;;;;;5113525;28;19923;-50
2023/12/09 07:22:19;;;;;;;;;;;;;;;;;;5113761;28;20367;-52
2023/12/09 07:24:45;;;;;;;;;;;;;;;;;;5113874;28;20359;-52
2023/12/09 07:27:11;;;;;;;;;;;;;;;;;;5113600;28;19924;-52
2023/12/09 07:29:37;;;;;;;;;;;;;;;;;;5113813;28;19995;-52
2023/12/09 07:32:04;;;;;;;;;;;;;;;;;;5113960;28;19924;-50
2023/12/09 07:34:30;;;;;;;;;;;;;;;;;;5113714;28;19924;-52
2023/12/09 07:36:56;;;;;;;;;;;;;;;;;;5113258;28;19923;-52
2023/12/09 07:39:23;;;;;;;;;;;;;;;;;;5113073;28;19924;-52
2023/12/09 07:41:51;;;;;;;;;;;;;;;;;;5113289;28;19970;-52
2023/12/09 07:44:17;;;;;;;;;;;;;;;;;;5113145;28;19973;-51
2023/12/09 07:46:43;;;;;;;;;;;;;;;;;;5113568;28;19924;-52
2023/12/09 07:55:04;;;;;;;;;;;;;;;;;;5110399;28;19924;-52
2023/12/09 07:57:30;;;;;;;;;;;;;;;;;;5113145;28;19976;-52
2023/12/09 07:59:57;;;;;;;;;;;;;;;;;;5112916;28;19924;-51
2023/12/09 08:02:23;;;;;;;;;;;;;;;;;;5113160;28;19928;-52
2023/12/09 08:04:49;;;;;;;;;;;;;;;;;;5113254;28;20386;-52
2023/12/09 08:07:16;;;;;;;;;;;;;;;;;;5113272;28;20275;-51
2023/12/09 08:09:42;;;;;;;;;;;;;;;;;;5113218;28;19957;-52
2023/12/09 08:12:08;;;;;;;;;;;;;;;;;;5113286;28;19923;-52
2023/12/09 08:14:34;;;;;;;;;;;;;;;;;;5113055;28;19931;-52
2023/12/09 08:17:00;;;;;;;;;;;;;;;;;;5112927;28;20276;-51
2023/12/09 08:19:27;;;;;;;;;;;;;;;;;;5113052;28;19928;-52
2023/12/09 08:21:53;;;;;;;;;;;;;;;;;;5112893;28;19934;-51
2023/12/09 08:24:19;;;;;;;;;;;;;;;;;;5112980;28;19931;-52
2023/12/09 08:26:45;;;;;;;;;;;;;;;;;;5112951;28;19972;-51
2023/12/09 08:29:14;;;;;;;;;;;;;;;;;;5113232;28;19973;-52
2023/12/09 08:31:40;;;;;;;;;;;;;;;;;;5113174;28;19931;-52
2023/12/09 08:34:06;;;;;;;;;;;;;;;;;;5113109;28;19973;-51
2023/12/09 08:36:32;;;;;;;;;;;;;;;;;;5112798;28;19923;-51
2023/12/09 08:38:59;;;;;;;;;;;;;;;;;;5112620;28;20006;-52
2023/12/09 08:41:25;;;;;;;;;;;;;;;;;;5113072;28;19939;-52
2023/12/09 08:43:53;;;;;;;;;;;;;;;;;;5117074;28;19939;-52
2023/12/09 08:46:20;;;;;;;;;;;;;;;;;;5116630;28;19928;-52
2023/12/09 08:48:47;;;;;;;;;;;;;;;;;;5116703;28;19924;-52
2023/12/09 08:51:13;;;;;;;;;;;;;;;;;;5116699;28;20260;-52
2023/12/09 08:53:39;;;;;;;;;;;;;;;;;;5116710;28;19931;-52
2023/12/09 08:56:05;;;;;;;;;;;;;;;;;;5116697;28;19977;-50
2023/12/09 08:58:31;;;;;;;;;;;;;;;;;;5116653;27;20388;-52
2023/12/09 09:00:58;;;;;;;;;;;;;;;;;;5116704;28;19960;-52
2023/12/09 09:03:24;;;;;;;;;;;;;;;;;;5116846;28;19930;-51
2023/12/09 09:05:50;;;;;;;;;;;;;;;;;;5116623;28;19923;-51
2023/12/09 09:08:16;;;;;;;;;;;;;;;;;;5116708;28;19941;-51
2023/12/09 09:10:42;;;;;;;;;;;;;;;;;;5116557;28;20310;-51
2023/12/09 09:13:09;;;;;;;;;;;;;;;;;;5116683;28;20398;-52
2023/12/09 09:15:35;;;;;;;;;;;;;;;;;;5116284;28;20383;-50
2023/12/09 09:18:02;;;;;;;;;;;;;;;;;;5115850;28;19985;-52
2023/12/09 09:20:28;;;;;;;;;;;;;;;;;;5116488;28;20434;-51
2023/12/09 09:22:54;;;;;;;;;;;;;;;;;;5116069;28;20374;-51
2023/12/09 09:25:20;;;;;;;;;;;;;;;;;;5115896;28;20313;-51
2023/12/09 09:27:47;;;;;;;;;;;;;;;;;;5116322;27;19924;-51
2023/12/09 09:30:15;;;;;;;;;;;;;;;;;;5116195;28;19932;-51
2023/12/09 09:32:41;;;;;;;;;;;;;;;;;;5116341;27;19924;-51
2023/12/09 09:35:08;;;;;;;;;;;;;;;;;;5116198;28;20355;-51
2023/12/09 09:37:35;;;;;;;;;;;;;;;;;;5115817;28;20317;-51
2023/12/09 09:40:04;;;;;;;;;;;;;;;;;;5115509;27;20341;-51
2023/12/09 09:42:31;;;;;;;;;;;;;;;;;;5115948;28;19931;-51
2023/12/09 09:45:00;;;;;;;;;;;;;;;;;;5115430;28;19930;-50
2023/12/09 09:47:27;;;;;;;;;;;;;;;;;;5115770;27;19931;-51
2023/12/09 09:49:53;;;;;;;;;;;;;;;;;;5115830;28;20355;-51
2023/12/09 09:52:19;;;;;;;;;;;;;;;;;;5115657;28;20309;-51
2023/12/09 09:54:45;;;;;;;;;;;;;;;;;;5115071;28;19978;-50
2023/12/09 09:57:11;;;;;;;;;;;;;;;;;;5114902;27;19931;-52
2023/12/09 09:59:38;;;;;;;;;;;;;;;;;;5115455;28;19924;-52
2023/12/09 10:02:05;;;;;;;;;;;;;;;;;;5115406;28;20047;-52
2023/12/09 10:04:31;;;;;;;;;;;;;;;;;;5115263;28;19977;-51
2023/12/09 10:06:57;;;;;;;;;;;;;;;;;;5115520;27;19931;-51
2023/12/09 10:09:23;;;;;;;;;;;;;;;;;;5115421;28;19924;-51
2023/12/09 10:11:49;;;;;;;;;;;;;;;;;;5115392;28;19930;-52
2023/12/09 10:14:16;;;;;;;;;;;;;;;;;;5114816;28;19931;-51
2023/12/09 10:16:42;;;;;;;;;;;;;;;;;;5114558;28;19924;-51
2023/12/09 10:19:09;;;;;;;;;;;;;;;;;;5114947;28;19976;-51
2023/12/09 10:21:35;;;;;;;;;;;;;;;;;;5115203;28;19930;-52
2023/12/09 10:24:01;;;;;;;;;;;;;;;;;;5115006;28;19928;-52
2023/12/09 10:26:27;;;;;;;;;;;;;;;;;;5114922;28;19931;-51
2023/12/09 10:28:54;;;;;;;;;;;;;;;;;;5114733;28;19973;-50
2023/12/09 10:31:20;;;;;;;;;;;;;;;;;;5114695;28;19931;-52
2023/12/09 10:33:46;;;;;;;;;;;;;;;;;;5114616;28;19959;-51
2023/12/09 10:36:12;;;;;;;;;;;;;;;;;;5114298;28;20350;-51
2023/12/09 10:38:39;;;;;;;;;;;;;;;;;;5113694;28;19930;-51
2023/12/09 10:41:05;;;;;;;;;;;;;;;;;;5114788;28;20055;-50
2023/12/09 10:43:31;;;;;;;;;;;;;;;;;;5114336;28;19973;-51
2023/12/09 10:45:58;;;;;;;;;;;;;;;;;;5114189;28;19932;-51
2023/12/09 10:48:24;;;;;;;;;;;;;;;;;;5114244;28;19970;-50
2023/12/09 10:50:50;;;;;;;;;;;;;;;;;;5114803;28;19923;-51
2023/12/09 10:53:16;;;;;;;;;;;;;;;;;;5114651;28;19928;-52
2023/12/09 10:55:42;;;;;;;;;;;;;;;;;;5114614;28;20359;-51
2023/12/09 10:58:09;;;;;;;;;;;;;;;;;;5114121;28;19980;-50
2023/12/09 11:00:36;;;;;;;;;;;;;;;;;;5114495;28;20341;-51
2023/12/09 11:03:03;;;;;;;;;;;;;;;;;;5114372;28;19930;-51
2023/12/09 11:05:29;;;;;;;;;;;;;;;;;;5113962;27;19924;-51
2023/12/09 11:07:57;;;;;;;;;;;;;;;;;;5113975;28;19931;-51
2023/12/09 11:10:23;;;;;;;;;;;;;;;;;;5114257;28;19969;-52
2023/12/09 11:12:49;;;;;;;;;;;;;;;;;;5114253;28;19927;-52
2023/12/09 11:15:15;;;;;;;;;;;;;;;;;;5113907;28;19931;-50
2023/12/09 11:17:44;;;;;;;;;;;;;;;;;;5113583;28;20006;-51
2023/12/09 11:20:10;;;;;;;;;;;;;;;;;;5070595;28;20344;-50
2023/12/09 11:22:36;;;;;;;;;;;;;;;;;;5070554;28;19929;-51
2023/12/09 11:25:03;;;;;;;;;;;;;;;;;;5070696;28;19924;-51
2023/12/09 11:27:29;;;;;;;;;;;;;;;;;;5070136;28;19964;-51
2023/12/09 11:29:55;;;;;;;;;;;;;;;;;;5070598;28;20491;-51
2023/12/09 11:32:21;;;;;;;;;;;;;;;;;;5070646;28;19928;-51
2023/12/09 11:34:47;;;;;;;;;;;;;;;;;;5070556;28;20427;-50
2023/12/09 11:37:13;;;;;;;;;;;;;;;;;;5071940;28;19924;-52
2023/12/09 11:39:40;;;;;;;;;;;;;;;;;;5113419;28;19927;-50
2023/12/09 11:42:06;;;;;;;;;;;;;;;;;;5113532;28;19934;-50
2023/12/09 11:44:35;;;;;;;;;;;;;;;;;;5113364;28;19938;-51
2023/12/09 11:47:01;;;;;;;;;;;;;;;;;;5113189;28;19923;-52
2023/12/09 11:49:27;;;;;;;;;;;;;;;;;;5113431;28;19977;-51
2023/12/09 11:51:53;;;;;;;;;;;;;;;;;;5113724;28;19931;-52
2023/12/09 11:54:20;;;;;;;;;;;;;;;;;;5113495;28;19972;-52
2023/12/09 11:56:46;;;;;;;;;;;;;;;;;;5113480;28;19930;-52
2023/12/09 11:59:12;;;;;;;;;;;;;;;;;;5109894;28;23447;-52
2023/12/09 12:01:39;;;;;;;;;;;;;;;;;;5113402;28;19976;-51
2023/12/09 12:04:05;;;;;;;;;;;;;;;;;;5112769;28;20371;-51
2023/12/09 12:06:32;;;;;;;;;;;;;;;;;;5113406;28;19978;-50
2023/12/09 12:08:58;;;;;;;;;;;;;;;;;;5112891;28;19959;-51
2023/12/09 12:11:25;;;;;;;;;;;;;;;;;;5113391;28;19931;-51
2023/12/09 12:13:51;;;;;;;;;;;;;;;;;;5113140;28;20429;-51
2023/12/09 12:16:17;;;;;;;;;;;;;;;;;;5113132;28;20425;-51
2023/12/09 12:18:43;;;;;;;;;;;;;;;;;;5116851;28;19967;-49
2023/12/09 12:21:09;;;;;;;;;;;;;;;;;;5115709;28;19974;-51
2023/12/09 12:23:36;;;;;;;;;;;;;;;;;;5117246;28;19980;-51
2023/12/09 12:26:02;;;;;;;;;;;;;;;;;;5117514;28;19924;-51
2023/12/09 12:28:28;;;;;;;;;;;;;;;;;;5116747;27;19924;-51
2023/12/09 12:30:54;;;;;;;;;;;;;;;;;;5117564;28;19924;-50
2023/12/09 12:33:21;;;;;;;;;;;;;;;;;;5117607;27;19951;-50
2023/12/09 12:35:48;;;;;;;;;;;;;;;;;;5117457;28;19928;-51
2023/12/09 12:38:14;;;;;;;;;;;;;;;;;;5114101;28;19927;-50
2023/12/09 12:40:40;;;;;;;;;;;;;;;;;;5116875;28;19981;-50
2023/12/09 12:43:06;;;;;;;;;;;;;;;;;;5116965;27;19976;-49
2023/12/09 12:45:33;;;;;;;;;;;;;;;;;;5116793;28;19924;-51
2023/12/09 12:47:59;;;;;;;;;;;;;;;;;;5116519;28;19955;-51
2023/12/09 12:50:25;;;;;;;;;;;;;;;;;;5116948;28;19928;-51
2023/12/09 12:52:52;;;;;;;;;;;;;;;;;;5117150;28;20430;-51
2023/12/09 12:55:18;;;;;;;;;;;;;;;;;;5116997;28;19928;-51
2023/12/09 12:57:44;;;;;;;;;;;;;;;;;;5116758;28;19924;-51
2023/12/09 13:00:11;;;;;;;;;;;;;;;;;;5116619;28;19935;-51
2023/12/09 13:02:38;;;;;;;;;;;;;;;;;;5116845;28;19927;-51
2023/12/09 13:05:04;;;;;;;;;;;;;;;;;;5116897;28;19924;-52
2023/12/09 13:07:31;;;;;;;;;;;;;;;;;;5116198;28;19928;-52
2023/12/09 13:09:57;;;;;;;;;;;;;;;;;;5115974;28;19927;-51
2023/12/09 13:12:23;;;;;;;;;;;;;;;;;;5116657;28;19924;-50
2023/12/09 13:14:49;;;;;;;;;;;;;;;;;;5116277;28;19950;-51
2023/12/09 13:17:15;;;;;;;;;;;;;;;;;;5116324;28;20325;-51
2023/12/09 13:19:41;;;;;;;;;;;;;;;;;;5115926;28;19924;-51
2023/12/09 13:22:08;;;;;;;;;;;;;;;;;;5115971;28;19938;-51
2023/12/09 13:24:34;;;;;;;;;;;;;;;;;;5116160;28;19923;-51
2023/12/09 13:27:00;;;;;;;;;;;;;;;;;;5116185;28;19924;-50
2023/12/09 13:29:26;;;;;;;;;;;;;;;;;;5115524;28;19990;-51
2023/12/09 13:31:53;;;;;;;;;;;;;;;;;;5115880;28;19924;-51
2023/12/09 13:34:19;;;;;;;;;;;;;;;;;;5116275;27;19945;-51
2023/12/09 13:36:45;;;;;;;;;;;;;;;;;;5116236;28;19924;-51
2023/12/09 13:39:14;;;;;;;;;;;;;;;;;;5115352;28;20386;-50
2023/12/09 13:41:40;;;;;;;;;;;;;;;;;;5115974;28;19924;-51
2023/12/09 13:44:06;;;;;;;;;;;;;;;;;;5115433;28;19931;-52
2023/12/09 13:46:32;;;;;;;;;;;;;;;;;;5115866;28;19969;-51
2023/12/09 13:48:58;;;;;;;;;;;;;;;;;;5115466;28;19927;-50
2023/12/09 13:51:25;;;;;;;;;;;;;;;;;;5115973;28;20279;-52
2023/12/09 13:53:53;;;;;;;;;;;;;;;;;;5115802;28;19973;-51
2023/12/09 13:56:20;;;;;;;;;;;;;;;;;;5115517;28;19924;-51
2023/12/09 13:58:47;;;;;;;;;;;;;;;;;;5115620;28;19973;-50
2023/12/09 14:01:13;;;;;;;;;;;;;;;;;;5115734;28;19923;-52
2023/12/09 14:03:39;;;;;;;;;;;;;;;;;;5115603;28;20359;-52
2023/12/09 14:06:05;;;;;;;;;;;;;;;;;;5115426;28;19939;-50
2023/12/09 14:08:32;;;;;;;;;;;;;;;;;;5114891;28;19934;-51
2023/12/09 14:11:00;;;;;;;;;;;;;;;;;;5115401;28;19923;-50
2023/12/09 14:13:27;;;;;;;;;;;;;;;;;;5115260;28;19924;-51
2023/12/09 14:15:54;;;;;;;;;;;;;;;;;;5114947;28;19932;-51
2023/12/09 14:18:20;;;;;;;;;;;;;;;;;;5115423;28;19923;-51
2023/12/09 14:20:46;;;;;;;;;;;;;;;;;;5115447;28;20042;-50
2023/12/09 14:23:12;;;;;;;;;;;;;;;;;;5114874;28;19973;-50
2023/12/09 14:25:38;;;;;;;;;;;;;;;;;;5115070;28;19973;-51
2023/12/09 14:28:04;;;;;;;;;;;;;;;;;;5114799;28;19923;-51
2023/12/09 14:30:31;;;;;;;;;;;;;;;;;;5115408;28;19980;-51
2023/12/09 14:32:57;;;;;;;;;;;;;;;;;;5115325;28;19928;-49
2023/12/09 14:35:23;;;;;;;;;;;;;;;;;;5114928;28;19959;-51
2023/12/09 14:37:50;;;;;;;;;;;;;;;;;;5114889;28;19927;-51
2023/12/09 14:40:16;;;;;;;;;;;;;;;;;;5114002;27;19977;-51
2023/12/09 14:42:43;;;;;;;;;;;;;;;;;;5114949;28;19928;-50
2023/12/09 14:45:10;;;;;;;;;;;;;;;;;;5114047;28;20294;-51
2023/12/09 14:47:36;;;;;;;;;;;;;;;;;;5114433;28;19935;-49
2023/12/09 14:50:02;;;;;;;;;;;;;;;;;;5114277;28;19924;-50
2023/12/09 14:52:28;;;;;;;;;;;;;;;;;;5114378;28;20010;-51
2023/12/09 14:54:56;;;;;;;;;;;;;;;;;;5114680;28;19972;-50
2023/12/09 14:57:22;;;;;;;;;;;;;;;;;;5114166;28;19928;-49
2023/12/09 14:59:48;;;;;;;;;;;;;;;;;;5114725;28;19930;-50
2023/12/09 15:02:14;;;;;;;;;;;;;;;;;;5114388;28;20329;-50
2023/12/09 15:04:40;;;;;;;;;;;;;;;;;;5114028;28;20336;-51
2023/12/09 15:07:06;;;;;;;;;;;;;;;;;;5114077;28;19959;-51
2023/12/09 15:09:33;;;;;;;;;;;;;;;;;;5113832;28;19923;-51
2023/12/09 15:11:59;;;;;;;;;;;;;;;;;;5113567;28;19928;-50
2023/12/09 15:14:27;;;;;;;;;;;;;;;;;;5113863;28;19973;-51
2023/12/09 15:16:53;;;;;;;;;;;;;;;;;;5114212;27;19924;-52
2023/12/09 15:19:19;;;;;;;;;;;;;;;;;;5113882;28;20329;-52
2023/12/09 15:21:46;;;;;;;;;;;;;;;;;;5114060;28;19949;-52
2023/12/09 15:24:12;;;;;;;;;;;;;;;;;;5113731;28;19973;-53
2023/12/09 15:26:39;;;;;;;;;;;;;;;;;;5113654;28;20393;-52
2023/12/09 15:29:05;;;;;;;;;;;;;;;;;;5113862;28;19924;-52
2023/12/09 15:31:31;;;;;;;;;;;;;;;;;;5112690;28;19969;-52
2023/12/09 15:33:58;;;;;;;;;;;;;;;;;;5112941;28;20303;-52
2023/12/09 15:36:25;;;;;;;;;;;;;;;;;;5113509;28;19924;-52
2023/12/09 15:38:51;;;;;;;;;;;;;;;;;;5113005;28;20279;-52
2023/12/09 15:41:17;;;;;;;;;;;;;;;;;;5113323;28;19924;-53
2023/12/09 15:43:43;;;;;;;;;;;;;;;;;;5113179;28;19977;-52
2023/12/09 15:46:09;;;;;;;;;;;;;;;;;;5113043;28;19928;-53
2023/12/09 15:48:35;;;;;;;;;;;;;;;;;;5113033;28;20423;-52
2023/12/09 15:51:05;;;;;;;;;;;;;;;;;;5112703;28;19924;-52
2023/12/09 15:53:32;;;;;;;;;;;;;;;;;;5113057;28;19957;-53
2023/12/09 15:55:58;;;;;;;;;;;;;;;;;;5113153;28;19923;-53
2023/12/09 15:58:24;;;;;;;;;;;;;;;;;;5113379;28;19924;-52
2023/12/09 16:00:50;;;;;;;;;;;;;;;;;;5113483;28;19928;-52
2023/12/09 16:03:17;;;;;;;;;;;;;;;;;;5113239;28;20399;-52
2023/12/09 16:05:43;;;;;;;;;;;;;;;;;;5112982;28;20003;-52
2023/12/09 16:08:09;;;;;;;;;;;;;;;;;;5112756;28;19924;-53
2023/12/09 16:10:35;;;;;;;;;;;;;;;;;;5112373;28;20040;-53
2023/12/09 16:13:02;;;;;;;;;;;;;;;;;;5112719;28;19928;-52
2023/12/09 16:15:29;;;;;;;;;;;;;;;;;;5112760;28;20032;-52
2023/12/09 16:17:56;;;;;;;;;;;;;;;;;;5113156;28;19932;-53
2023/12/09 16:20:22;;;;;;;;;;;;;;;;;;5112831;28;19928;-53
2023/12/09 16:22:48;;;;;;;;;;;;;;;;;;5112658;28;19971;-53
2023/12/09 16:25:14;;;;;;;;;;;;;;;;;;5112739;28;19946;-53
2023/12/09 16:27:40;;;;;;;;;;;;;;;;;;5112216;28;20316;-52
2023/12/09 16:30:07;;;;;;;;;;;;;;;;;;5112497;28;19930;-52
2023/12/09 16:32:33;;;;;;;;;;;;;;;;;;5112306;28;19924;-52
2023/12/09 16:34:59;;;;;;;;;;;;;;;;;;5112736;28;19924;-53
2023/12/09 16:37:27;;;;;;;;;;;;;;;;;;5112821;28;19978;-52
2023/12/09 16:39:53;;;;;;;;;;;;;;;;;;5112533;28;20355;-52
2023/12/09 16:42:19;;;;;;;;;;;;;;;;;;5112782;28;19924;-53
2023/12/09 16:44:45;;;;;;;;;;;;;;;;;;5107985;28;19930;-53